sensor_id;sensor_type;location;lat;lon;timestamp;temperature;humidity
22781;DHT22;11557;50.884;4.322;2022-08-19T00:00:07;22.30;99.90
22781;DHT22;11557;50.884;4.322;2022-08-19T00:02:34;22.30;99.90
22781;DHT22;11557;50.884;4.322;2022-08-19T00:04:59;22.20;99.90
22781;DHT22;11557;50.884;4.322;2022-08-19T00:07:26;22.20;99.90
22781;DHT22;11557;50.884;4.322;2022-08-19T00:09:53;22.10;99.90
22781;DHT22;11557;50.884;4.322;2022-08-19T00:12:19;22.10;99.90
22781;DHT22;11557;50.884;4.322;2022-08-19T00:14:44;22.00;99.90
22781;DHT22;11557;50.884;4.322;2022-08-19T00:17:11;21.90;99.90
22781;DHT22;11557;50.884;4.322;2022-08-19T00:19:38;22.00;99.90
22781;DHT22;11557;50.884;4.322;2022-08-19T00:22:04;22.00;99.90
22781;DHT22;11557;50.884;4.322;2022-08-19T00:24:31;22.10;99.90
22781;DHT22;11557;50.884;4.322;2022-08-19T00:27:00;22.20;99.90
22781;DHT22;11557;50.884;4.322;2022-08-19T00:29:27;22.40;99.90
22781;DHT22;11557;50.884;4.322;2022-08-19T00:31:53;22.50;99.90
22781;DHT22;11557;50.884;4.322;2022-08-19T00:34:21;22.50;99.90
22781;DHT22;11557;50.884;4.322;2022-08-19T00:36:54;22.40;99.90
22781;DHT22;11557;50.884;4.322;2022-08-19T00:39:21;22.30;99.90
22781;DHT22;11557;50.884;4.322;2022-08-19T00:41:47;22.30;99.90
22781;DHT22;11557;50.884;4.322;2022-08-19T00:44:18;22.30;99.90
22781;DHT22;11557;50.884;4.322;2022-08-19T00:46:49;22.00;99.90
22781;DHT22;11557;50.884;4.322;2022-08-19T00:49:37;22.00;99.90
22781;DHT22;11557;50.884;4.322;2022-08-19T00:52:18;22.00;99.90
22781;DHT22;11557;50.884;4.322;2022-08-19T00:54:46;22.20;99.90
22781;DHT22;11557;50.884;4.322;2022-08-19T00:57:15;22.20;99.90
22781;DHT22;11557;50.884;4.322;2022-08-19T00:59:46;22.10;99.90
22781;DHT22;11557;50.884;4.322;2022-08-19T01:02:14;22.20;99.90
22781;DHT22;11557;50.884;4.322;2022-08-19T01:04:40;22.20;99.90
22781;DHT22;11557;50.884;4.322;2022-08-19T01:07:07;22.10;99.90
22781;DHT22;11557;50.884;4.322;2022-08-19T01:09:33;22.20;99.90
22781;DHT22;11557;50.884;4.322;2022-08-19T01:12:02;22.20;99.90
22781;DHT22;11557;50.884;4.322;2022-08-19T01:14:29;22.20;99.90
22781;DHT22;11557;50.884;4.322;2022-08-19T01:16:56;22.10;99.90
22781;DHT22;11557;50.884;4.322;2022-08-19T01:21:58;22.10;99.90
22781;DHT22;11557;50.884;4.322;2022-08-19T01:24:27;22.00;99.90
22781;DHT22;11557;50.884;4.322;2022-08-19T01:26:54;22.00;99.90
22781;DHT22;11557;50.884;4.322;2022-08-19T01:29:20;22.00;99.90
22781;DHT22;11557;50.884;4.322;2022-08-19T01:31:46;21.90;99.90
22781;DHT22;11557;50.884;4.322;2022-08-19T01:34:11;21.90;99.90
22781;DHT22;11557;50.884;4.322;2022-08-19T01:36:44;21.80;99.90
22781;DHT22;11557;50.884;4.322;2022-08-19T01:39:22;21.70;99.90
22781;DHT22;11557;50.884;4.322;2022-08-19T01:41:50;21.70;99.90
22781;DHT22;11557;50.884;4.322;2022-08-19T01:44:19;21.70;99.90
22781;DHT22;11557;50.884;4.322;2022-08-19T01:46:51;21.70;99.90
22781;DHT22;11557;50.884;4.322;2022-08-19T01:49:19;21.50;99.90
22781;DHT22;11557;50.884;4.322;2022-08-19T01:51:48;21.50;99.90
22781;DHT22;11557;50.884;4.322;2022-08-19T01:54:16;21.50;99.90
22781;DHT22;11557;50.884;4.322;2022-08-19T01:56:42;21.50;99.90
22781;DHT22;11557;50.884;4.322;2022-08-19T01:59:11;21.50;99.90
22781;DHT22;11557;50.884;4.322;2022-08-19T02:01:37;21.50;99.90
22781;DHT22;11557;50.884;4.322;2022-08-19T02:04:03;21.20;99.90
22781;DHT22;11557;50.884;4.322;2022-08-19T02:06:29;21.10;99.90
22781;DHT22;11557;50.884;4.322;2022-08-19T02:08:56;21.00;99.90
22781;DHT22;11557;50.884;4.322;2022-08-19T02:11:26;20.70;99.90
22781;DHT22;11557;50.884;4.322;2022-08-19T02:13:54;20.60;99.90
22781;DHT22;11557;50.884;4.322;2022-08-19T02:16:20;20.70;99.90
22781;DHT22;11557;50.884;4.322;2022-08-19T02:18:47;20.70;99.90
22781;DHT22;11557;50.884;4.322;2022-08-19T02:21:20;20.80;99.90
22781;DHT22;11557;50.884;4.322;2022-08-19T02:23:46;20.90;99.90
22781;DHT22;11557;50.884;4.322;2022-08-19T02:26:12;20.80;99.90
22781;DHT22;11557;50.884;4.322;2022-08-19T02:28:39;20.80;99.90
22781;DHT22;11557;50.884;4.322;2022-08-19T02:31:18;20.70;99.90
22781;DHT22;11557;50.884;4.322;2022-08-19T02:33:44;20.30;99.90
22781;DHT22;11557;50.884;4.322;2022-08-19T02:36:12;20.70;99.90
22781;DHT22;11557;50.884;4.322;2022-08-19T02:38:39;20.80;99.90
22781;DHT22;11557;50.884;4.322;2022-08-19T02:41:14;20.80;99.90
22781;DHT22;11557;50.884;4.322;2022-08-19T02:43:42;20.80;99.90
22781;DHT22;11557;50.884;4.322;2022-08-19T02:46:15;20.80;99.90
22781;DHT22;11557;50.884;4.322;2022-08-19T02:48:49;20.80;99.90
22781;DHT22;11557;50.884;4.322;2022-08-19T02:51:24;20.70;99.90
22781;DHT22;11557;50.884;4.322;2022-08-19T02:53:50;20.50;99.90
22781;DHT22;11557;50.884;4.322;2022-08-19T02:56:16;20.50;99.90
22781;DHT22;11557;50.884;4.322;2022-08-19T02:58:42;20.40;99.90
22781;DHT22;11557;50.884;4.322;2022-08-19T03:01:09;20.50;99.90
22781;DHT22;11557;50.884;4.322;2022-08-19T03:03:37;20.50;99.90
22781;DHT22;11557;50.884;4.322;2022-08-19T03:06:07;20.50;99.90
22781;DHT22;11557;50.884;4.322;2022-08-19T03:08:32;20.60;99.90
22781;DHT22;11557;50.884;4.322;2022-08-19T03:10:58;20.60;99.90
22781;DHT22;11557;50.884;4.322;2022-08-19T03:13:25;20.70;99.90
22781;DHT22;11557;50.884;4.322;2022-08-19T03:15:52;20.60;99.90
22781;DHT22;11557;50.884;4.322;2022-08-19T03:18:19;20.50;99.90
22781;DHT22;11557;50.884;4.322;2022-08-19T03:20:47;20.50;99.90
22781;DHT22;11557;50.884;4.322;2022-08-19T03:23:15;20.60;99.90
22781;DHT22;11557;50.884;4.322;2022-08-19T03:25:46;20.60;99.90
22781;DHT22;11557;50.884;4.322;2022-08-19T03:28:13;20.60;99.90
22781;DHT22;11557;50.884;4.322;2022-08-19T03:30:41;20.70;99.90
22781;DHT22;11557;50.884;4.322;2022-08-19T03:33:09;20.60;99.90
22781;DHT22;11557;50.884;4.322;2022-08-19T03:35:36;20.60;99.90
22781;DHT22;11557;50.884;4.322;2022-08-19T03:38:05;20.60;99.90
22781;DHT22;11557;50.884;4.322;2022-08-19T03:40:36;20.70;99.90
22781;DHT22;11557;50.884;4.322;2022-08-19T03:43:03;20.70;99.90
22781;DHT22;11557;50.884;4.322;2022-08-19T03:45:30;20.60;99.90
22781;DHT22;11557;50.884;4.322;2022-08-19T03:47:56;20.70;99.90
22781;DHT22;11557;50.884;4.322;2022-08-19T03:50:22;20.40;99.90
22781;DHT22;11557;50.884;4.322;2022-08-19T03:52:51;20.40;99.90
22781;DHT22;11557;50.884;4.322;2022-08-19T03:55:18;20.30;99.90
22781;DHT22;11557;50.884;4.322;2022-08-19T03:57:45;20.20;99.90
22781;DHT22;11557;50.884;4.322;2022-08-19T04:00:13;20.10;99.90
22781;DHT22;11557;50.884;4.322;2022-08-19T04:02:40;20.20;99.90
22781;DHT22;11557;50.884;4.322;2022-08-19T04:05:06;20.30;99.90
22781;DHT22;11557;50.884;4.322;2022-08-19T04:07:33;20.40;99.90
22781;DHT22;11557;50.884;4.322;2022-08-19T04:10:00;20.30;99.90
22781;DHT22;11557;50.884;4.322;2022-08-19T04:12:30;20.20;99.90
22781;DHT22;11557;50.884;4.322;2022-08-19T04:14:56;20.00;99.90
22781;DHT22;11557;50.884;4.322;2022-08-19T04:17:21;19.90;99.90
22781;DHT22;11557;50.884;4.322;2022-08-19T04:19:47;19.80;99.90
22781;DHT22;11557;50.884;4.322;2022-08-19T04:22:13;20.00;99.90
22781;DHT22;11557;50.884;4.322;2022-08-19T04:24:38;20.00;99.90
22781;DHT22;11557;50.884;4.322;2022-08-19T04:27:05;20.10;99.90
22781;DHT22;11557;50.884;4.322;2022-08-19T04:29:33;19.90;99.90
22781;DHT22;11557;50.884;4.322;2022-08-19T04:31:58;20.00;99.90
22781;DHT22;11557;50.884;4.322;2022-08-19T04:34:26;19.90;99.90
22781;DHT22;11557;50.884;4.322;2022-08-19T04:36:54;19.90;99.90
22781;DHT22;11557;50.884;4.322;2022-08-19T04:39:26;19.90;99.90
22781;DHT22;11557;50.884;4.322;2022-08-19T04:42:14;20.00;99.90
22781;DHT22;11557;50.884;4.322;2022-08-19T04:44:58;20.00;99.90
22781;DHT22;11557;50.884;4.322;2022-08-19T04:47:24;20.10;99.90
22781;DHT22;11557;50.884;4.322;2022-08-19T04:49:51;19.90;99.90
22781;DHT22;11557;50.884;4.322;2022-08-19T04:52:17;19.90;99.90
22781;DHT22;11557;50.884;4.322;2022-08-19T04:54:42;19.90;99.90
22781;DHT22;11557;50.884;4.322;2022-08-19T04:57:09;19.90;99.90
22781;DHT22;11557;50.884;4.322;2022-08-19T04:59:39;20.00;99.90
22781;DHT22;11557;50.884;4.322;2022-08-19T05:02:06;20.00;99.90
22781;DHT22;11557;50.884;4.322;2022-08-19T05:04:32;19.90;99.90
22781;DHT22;11557;50.884;4.322;2022-08-19T05:06:58;19.90;99.90
22781;DHT22;11557;50.884;4.322;2022-08-19T05:09:23;19.90;99.90
22781;DHT22;11557;50.884;4.322;2022-08-19T05:11:50;19.90;99.90
22781;DHT22;11557;50.884;4.322;2022-08-19T05:14:18;19.80;99.90
22781;DHT22;11557;50.884;4.322;2022-08-19T05:16:45;19.70;99.90
22781;DHT22;11557;50.884;4.322;2022-08-19T05:19:10;19.70;99.90
22781;DHT22;11557;50.884;4.322;2022-08-19T05:21:56;19.60;99.90
22781;DHT22;11557;50.884;4.322;2022-08-19T05:24:46;18.90;99.90
22781;DHT22;11557;50.884;4.322;2022-08-19T05:27:12;19.60;99.90
22781;DHT22;11557;50.884;4.322;2022-08-19T05:29:37;19.70;99.90
22781;DHT22;11557;50.884;4.322;2022-08-19T05:32:05;19.70;99.90
22781;DHT22;11557;50.884;4.322;2022-08-19T05:34:34;19.60;99.90
22781;DHT22;11557;50.884;4.322;2022-08-19T05:37:02;19.80;99.90
22781;DHT22;11557;50.884;4.322;2022-08-19T05:39:29;20.20;99.90
22781;DHT22;11557;50.884;4.322;2022-08-19T05:41:59;19.90;99.90
22781;DHT22;11557;50.884;4.322;2022-08-19T05:44:29;20.00;99.90
22781;DHT22;11557;50.884;4.322;2022-08-19T05:46:57;19.90;99.90
22781;DHT22;11557;50.884;4.322;2022-08-19T05:49:24;19.90;99.90
22781;DHT22;11557;50.884;4.322;2022-08-19T05:51:50;20.00;99.90
22781;DHT22;11557;50.884;4.322;2022-08-19T05:54:16;20.00;99.90
22781;DHT22;11557;50.884;4.322;2022-08-19T05:56:43;20.50;99.90
22781;DHT22;11557;50.884;4.322;2022-08-19T05:59:10;20.30;99.90
22781;DHT22;11557;50.884;4.322;2022-08-19T06:01:42;20.30;99.90
22781;DHT22;11557;50.884;4.322;2022-08-19T06:04:08;20.20;99.90
22781;DHT22;11557;50.884;4.322;2022-08-19T06:06:35;20.30;99.90
22781;DHT22;11557;50.884;4.322;2022-08-19T06:09:05;20.40;99.90
22781;DHT22;11557;50.884;4.322;2022-08-19T06:11:38;20.40;99.90
22781;DHT22;11557;50.884;4.322;2022-08-19T06:14:10;20.50;99.90
22781;DHT22;11557;50.884;4.322;2022-08-19T06:16:38;20.60;99.90
22781;DHT22;11557;50.884;4.322;2022-08-19T06:19:07;20.80;99.90
22781;DHT22;11557;50.884;4.322;2022-08-19T06:21:35;20.70;99.90
22781;DHT22;11557;50.884;4.322;2022-08-19T06:24:03;20.80;99.90
22781;DHT22;11557;50.884;4.322;2022-08-19T06:26:30;21.00;99.90
22781;DHT22;11557;50.884;4.322;2022-08-19T06:28:56;20.90;99.90
22781;DHT22;11557;50.884;4.322;2022-08-19T06:31:26;21.00;99.90
22781;DHT22;11557;50.884;4.322;2022-08-19T06:33:52;20.90;99.90
22781;DHT22;11557;50.884;4.322;2022-08-19T06:36:27;21.00;99.90
22781;DHT22;11557;50.884;4.322;2022-08-19T06:38:55;21.00;99.90
22781;DHT22;11557;50.884;4.322;2022-08-19T06:41:26;21.30;99.90
22781;DHT22;11557;50.884;4.322;2022-08-19T06:43:53;21.40;99.90
22781;DHT22;11557;50.884;4.322;2022-08-19T06:46:19;21.50;99.90
22781;DHT22;11557;50.884;4.322;2022-08-19T06:48:45;21.60;99.90
22781;DHT22;11557;50.884;4.322;2022-08-19T06:51:14;21.50;99.90
22781;DHT22;11557;50.884;4.322;2022-08-19T06:53:41;21.50;99.90
22781;DHT22;11557;50.884;4.322;2022-08-19T06:56:16;21.70;99.90
22781;DHT22;11557;50.884;4.322;2022-08-19T06:58:42;21.80;99.90
22781;DHT22;11557;50.884;4.322;2022-08-19T07:01:08;21.50;99.90
22781;DHT22;11557;50.884;4.322;2022-08-19T07:03:36;21.60;99.90
22781;DHT22;11557;50.884;4.322;2022-08-19T07:06:07;21.80;99.90
22781;DHT22;11557;50.884;4.322;2022-08-19T07:08:34;21.80;99.90
22781;DHT22;11557;50.884;4.322;2022-08-19T07:11:02;21.70;99.90
22781;DHT22;11557;50.884;4.322;2022-08-19T07:13:30;21.60;99.90
22781;DHT22;11557;50.884;4.322;2022-08-19T07:15:58;21.80;99.90
22781;DHT22;11557;50.884;4.322;2022-08-19T07:18:27;21.70;99.90
22781;DHT22;11557;50.884;4.322;2022-08-19T07:21:12;21.70;99.90
22781;DHT22;11557;50.884;4.322;2022-08-19T07:23:40;21.70;99.90
22781;DHT22;11557;50.884;4.322;2022-08-19T07:26:18;21.70;99.90
22781;DHT22;11557;50.884;4.322;2022-08-19T07:28:45;21.90;99.90
22781;DHT22;11557;50.884;4.322;2022-08-19T07:31:12;22.00;99.90
22781;DHT22;11557;50.884;4.322;2022-08-19T07:33:39;22.30;99.90
22781;DHT22;11557;50.884;4.322;2022-08-19T07:36:07;22.30;99.90
22781;DHT22;11557;50.884;4.322;2022-08-19T07:38:33;22.30;99.90
22781;DHT22;11557;50.884;4.322;2022-08-19T07:40:59;22.30;99.90
22781;DHT22;11557;50.884;4.322;2022-08-19T07:43:25;22.50;99.90
22781;DHT22;11557;50.884;4.322;2022-08-19T07:45:54;22.60;99.90
22781;DHT22;11557;50.884;4.322;2022-08-19T07:48:24;22.90;99.90
22781;DHT22;11557;50.884;4.322;2022-08-19T07:50:54;23.10;99.90
22781;DHT22;11557;50.884;4.322;2022-08-19T07:53:24;23.00;99.90
22781;DHT22;11557;50.884;4.322;2022-08-19T07:55:50;23.20;99.90
22781;DHT22;11557;50.884;4.322;2022-08-19T07:58:18;23.30;99.90
22781;DHT22;11557;50.884;4.322;2022-08-19T08:00:47;23.30;99.90
22781;DHT22;11557;50.884;4.322;2022-08-19T08:03:14;23.10;99.90
22781;DHT22;11557;50.884;4.322;2022-08-19T08:05:41;22.90;99.90
22781;DHT22;11557;50.884;4.322;2022-08-19T08:08:26;22.80;99.90
22781;DHT22;11557;50.884;4.322;2022-08-19T08:11:10;22.90;99.90
22781;DHT22;11557;50.884;4.322;2022-08-19T08:13:37;22.90;99.90
22781;DHT22;11557;50.884;4.322;2022-08-19T08:16:04;23.00;99.90
22781;DHT22;11557;50.884;4.322;2022-08-19T08:18:30;23.10;99.90
22781;DHT22;11557;50.884;4.322;2022-08-19T08:20:57;23.20;99.90
22781;DHT22;11557;50.884;4.322;2022-08-19T08:23:23;23.00;99.90
22781;DHT22;11557;50.884;4.322;2022-08-19T08:25:54;23.00;99.90
22781;DHT22;11557;50.884;4.322;2022-08-19T08:28:21;23.10;99.90
22781;DHT22;11557;50.884;4.322;2022-08-19T08:30:48;23.30;99.90
22781;DHT22;11557;50.884;4.322;2022-08-19T08:33:19;23.30;99.90
22781;DHT22;11557;50.884;4.322;2022-08-19T08:35:45;23.20;99.90
22781;DHT22;11557;50.884;4.322;2022-08-19T08:38:11;23.10;99.90
22781;DHT22;11557;50.884;4.322;2022-08-19T08:40:57;23.10;99.90
22781;DHT22;11557;50.884;4.322;2022-08-19T08:43:37;23.10;99.90
22781;DHT22;11557;50.884;4.322;2022-08-19T08:48:37;23.10;99.90
22781;DHT22;11557;50.884;4.322;2022-08-19T08:51:09;23.10;99.90
22781;DHT22;11557;50.884;4.322;2022-08-19T08:53:36;23.10;99.90
22781;DHT22;11557;50.884;4.322;2022-08-19T08:56:04;23.20;99.90
22781;DHT22;11557;50.884;4.322;2022-08-19T09:01:10;23.10;99.90
22781;DHT22;11557;50.884;4.322;2022-08-19T09:03:37;22.90;99.90
22781;DHT22;11557;50.884;4.322;2022-08-19T09:06:11;23.10;99.90
22781;DHT22;11557;50.884;4.322;2022-08-19T09:11:15;23.30;99.90
22781;DHT22;11557;50.884;4.322;2022-08-19T09:16:33;23.50;99.90
22781;DHT22;11557;50.884;4.322;2022-08-19T09:19:04;23.50;99.90
22781;DHT22;11557;50.884;4.322;2022-08-19T09:21:31;23.40;99.90
22781;DHT22;11557;50.884;4.322;2022-08-19T09:23:57;23.60;99.90
22781;DHT22;11557;50.884;4.322;2022-08-19T09:26:24;23.80;99.90
22781;DHT22;11557;50.884;4.322;2022-08-19T09:28:51;23.80;99.90
22781;DHT22;11557;50.884;4.322;2022-08-19T09:31:21;23.70;99.90
22781;DHT22;11557;50.884;4.322;2022-08-19T09:33:47;23.60;99.90
22781;DHT22;11557;50.884;4.322;2022-08-19T09:36:15;23.70;99.90
22781;DHT22;11557;50.884;4.322;2022-08-19T09:38:41;23.70;99.90
22781;DHT22;11557;50.884;4.322;2022-08-19T09:41:16;23.70;99.90
22781;DHT22;11557;50.884;4.322;2022-08-19T09:43:45;23.80;99.90
22781;DHT22;11557;50.884;4.322;2022-08-19T09:46:11;23.80;99.90
22781;DHT22;11557;50.884;4.322;2022-08-19T09:48:38;23.80;99.90
22781;DHT22;11557;50.884;4.322;2022-08-19T09:51:12;23.80;99.90
22781;DHT22;11557;50.884;4.322;2022-08-19T09:53:43;23.90;99.90
22781;DHT22;11557;50.884;4.322;2022-08-19T09:56:09;23.80;99.90
22781;DHT22;11557;50.884;4.322;2022-08-19T09:58:36;24.00;99.90
22781;DHT22;11557;50.884;4.322;2022-08-19T10:01:03;23.90;99.90
22781;DHT22;11557;50.884;4.322;2022-08-19T10:03:31;24.00;99.90
22781;DHT22;11557;50.884;4.322;2022-08-19T10:06:00;24.20;99.90
22781;DHT22;11557;50.884;4.322;2022-08-19T10:08:28;24.30;99.90
22781;DHT22;11557;50.884;4.322;2022-08-19T10:10:55;24.10;99.90
22781;DHT22;11557;50.884;4.322;2022-08-19T10:13:24;24.30;99.90
22781;DHT22;11557;50.884;4.322;2022-08-19T10:15:53;24.20;99.90
22781;DHT22;11557;50.884;4.322;2022-08-19T10:18:20;24.10;99.90
22781;DHT22;11557;50.884;4.322;2022-08-19T10:20:47;24.00;99.90
22781;DHT22;11557;50.884;4.322;2022-08-19T10:23:14;23.80;99.90
22781;DHT22;11557;50.884;4.322;2022-08-19T10:25:40;23.80;99.90
22781;DHT22;11557;50.884;4.322;2022-08-19T10:28:06;24.00;99.90
22781;DHT22;11557;50.884;4.322;2022-08-19T10:30:33;24.00;99.90
22781;DHT22;11557;50.884;4.322;2022-08-19T10:32:58;24.10;99.90
22781;DHT22;11557;50.884;4.322;2022-08-19T10:35:25;24.00;99.90
22781;DHT22;11557;50.884;4.322;2022-08-19T10:37:54;24.10;99.90
22781;DHT22;11557;50.884;4.322;2022-08-19T10:40:25;24.10;99.90
22781;DHT22;11557;50.884;4.322;2022-08-19T10:42:52;24.10;99.90
22781;DHT22;11557;50.884;4.322;2022-08-19T10:45:18;24.20;99.90
22781;DHT22;11557;50.884;4.322;2022-08-19T10:47:44;24.10;99.90
22781;DHT22;11557;50.884;4.322;2022-08-19T10:50:09;24.30;99.90
22781;DHT22;11557;50.884;4.322;2022-08-19T10:52:54;24.30;99.90
22781;DHT22;11557;50.884;4.322;2022-08-19T10:55:22;24.10;99.90
22781;DHT22;11557;50.884;4.322;2022-08-19T10:58:11;24.10;99.90
22781;DHT22;11557;50.884;4.322;2022-08-19T11:00:38;24.00;99.90
22781;DHT22;11557;50.884;4.322;2022-08-19T11:03:05;24.00;99.90
22781;DHT22;11557;50.884;4.322;2022-08-19T11:05:31;23.90;99.90
22781;DHT22;11557;50.884;4.322;2022-08-19T11:07:57;24.00;99.90
22781;DHT22;11557;50.884;4.322;2022-08-19T11:10:24;24.20;99.90
22781;DHT22;11557;50.884;4.322;2022-08-19T11:12:51;24.30;99.90
22781;DHT22;11557;50.884;4.322;2022-08-19T11:15:20;24.50;99.90
22781;DHT22;11557;50.884;4.322;2022-08-19T11:17:45;24.50;99.90
22781;DHT22;11557;50.884;4.322;2022-08-19T11:20:12;24.70;99.90
22781;DHT22;11557;50.884;4.322;2022-08-19T11:22:39;24.90;99.90
22781;DHT22;11557;50.884;4.322;2022-08-19T11:25:06;25.00;99.90
22781;DHT22;11557;50.884;4.322;2022-08-19T11:27:32;25.00;99.90
22781;DHT22;11557;50.884;4.322;2022-08-19T11:29:59;25.00;99.90
22781;DHT22;11557;50.884;4.322;2022-08-19T11:32:25;24.80;99.90
22781;DHT22;11557;50.884;4.322;2022-08-19T11:34:51;24.60;99.90
22781;DHT22;11557;50.884;4.322;2022-08-19T11:37:17;24.50;99.90
22781;DHT22;11557;50.884;4.322;2022-08-19T11:39:43;24.40;99.90
22781;DHT22;11557;50.884;4.322;2022-08-19T11:42:09;24.30;99.90
22781;DHT22;11557;50.884;4.322;2022-08-19T11:44:53;24.30;99.90
22781;DHT22;11557;50.884;4.322;2022-08-19T11:47:19;24.40;99.90
22781;DHT22;11557;50.884;4.322;2022-08-19T11:49:46;24.50;99.90
22781;DHT22;11557;50.884;4.322;2022-08-19T11:52:12;24.80;99.90
22781;DHT22;11557;50.884;4.322;2022-08-19T11:54:37;25.10;99.90
22781;DHT22;11557;50.884;4.322;2022-08-19T11:57:03;25.40;99.90
22781;DHT22;11557;50.884;4.322;2022-08-19T11:59:29;25.60;99.90
22781;DHT22;11557;50.884;4.322;2022-08-19T12:01:55;25.70;99.90
22781;DHT22;11557;50.884;4.322;2022-08-19T12:04:21;25.80;99.90
22781;DHT22;11557;50.884;4.322;2022-08-19T12:06:47;26.00;99.90
22781;DHT22;11557;50.884;4.322;2022-08-19T12:09:13;25.90;99.90
22781;DHT22;11557;50.884;4.322;2022-08-19T12:11:39;25.80;99.90
22781;DHT22;11557;50.884;4.322;2022-08-19T12:14:08;25.90;99.90
22781;DHT22;11557;50.884;4.322;2022-08-19T12:16:34;25.90;99.90
22781;DHT22;11557;50.884;4.322;2022-08-19T12:19:00;25.60;99.90
22781;DHT22;11557;50.884;4.322;2022-08-19T12:21:29;25.80;99.90
22781;DHT22;11557;50.884;4.322;2022-08-19T12:23:57;25.80;99.90
22781;DHT22;11557;50.884;4.322;2022-08-19T12:26:25;25.90;99.90
22781;DHT22;11557;50.884;4.322;2022-08-19T12:28:52;26.10;99.90
22781;DHT22;11557;50.884;4.322;2022-08-19T12:31:18;26.10;99.90
22781;DHT22;11557;50.884;4.322;2022-08-19T12:33:45;26.20;99.90
22781;DHT22;11557;50.884;4.322;2022-08-19T12:36:13;26.20;99.90
22781;DHT22;11557;50.884;4.322;2022-08-19T12:38:40;26.40;99.90
22781;DHT22;11557;50.884;4.322;2022-08-19T12:41:07;26.60;99.90
22781;DHT22;11557;50.884;4.322;2022-08-19T12:43:34;26.80;99.90
22781;DHT22;11557;50.884;4.322;2022-08-19T12:46:01;26.50;99.90
22781;DHT22;11557;50.884;4.322;2022-08-19T12:48:26;26.40;99.90
22781;DHT22;11557;50.884;4.322;2022-08-19T12:50:52;26.10;99.90
22781;DHT22;11557;50.884;4.322;2022-08-19T12:53:18;26.20;99.90
22781;DHT22;11557;50.884;4.322;2022-08-19T12:55:44;26.30;99.90
22781;DHT22;11557;50.884;4.322;2022-08-19T12:58:11;26.50;99.90
22781;DHT22;11557;50.884;4.322;2022-08-19T13:00:38;26.70;99.90
22781;DHT22;11557;50.884;4.322;2022-08-19T13:03:04;26.60;99.90
22781;DHT22;11557;50.884;4.322;2022-08-19T13:05:31;26.60;99.90
22781;DHT22;11557;50.884;4.322;2022-08-19T13:07:59;26.90;99.90
22781;DHT22;11557;50.884;4.322;2022-08-19T13:10:31;26.90;99.90
22781;DHT22;11557;50.884;4.322;2022-08-19T13:13:01;26.80;99.90
22781;DHT22;11557;50.884;4.322;2022-08-19T13:15:29;26.50;99.90
22781;DHT22;11557;50.884;4.322;2022-08-19T13:17:57;26.60;99.90
22781;DHT22;11557;50.884;4.322;2022-08-19T13:20:26;26.50;99.90
22781;DHT22;11557;50.884;4.322;2022-08-19T13:22:53;26.40;99.90
22781;DHT22;11557;50.884;4.322;2022-08-19T13:25:19;26.40;99.90
22781;DHT22;11557;50.884;4.322;2022-08-19T13:27:49;26.40;99.90
22781;DHT22;11557;50.884;4.322;2022-08-19T13:30:17;26.30;99.90
22781;DHT22;11557;50.884;4.322;2022-08-19T13:33:01;26.50;99.90
22781;DHT22;11557;50.884;4.322;2022-08-19T13:35:40;26.60;99.90
22781;DHT22;11557;50.884;4.322;2022-08-19T13:38:06;26.50;99.90
22781;DHT22;11557;50.884;4.322;2022-08-19T13:40:33;26.50;99.90
22781;DHT22;11557;50.884;4.322;2022-08-19T13:43:00;26.80;99.90
22781;DHT22;11557;50.884;4.322;2022-08-19T13:45:28;26.70;99.90
22781;DHT22;11557;50.884;4.322;2022-08-19T13:47:56;26.70;99.90
22781;DHT22;11557;50.884;4.322;2022-08-19T13:50:29;26.60;99.90
22781;DHT22;11557;50.884;4.322;2022-08-19T13:52:56;26.50;99.90
22781;DHT22;11557;50.884;4.322;2022-08-19T13:55:23;26.60;99.90
22781;DHT22;11557;50.884;4.322;2022-08-19T13:57:56;26.50;99.90
22781;DHT22;11557;50.884;4.322;2022-08-19T14:00:24;26.50;99.90
22781;DHT22;11557;50.884;4.322;2022-08-19T14:02:54;26.40;99.90
22781;DHT22;11557;50.884;4.322;2022-08-19T14:05:21;26.30;99.90
22781;DHT22;11557;50.884;4.322;2022-08-19T14:07:47;25.90;99.90
22781;DHT22;11557;50.884;4.322;2022-08-19T14:27:20;24.30;99.90
22781;DHT22;11557;50.884;4.322;2022-08-19T14:33:21;24.60;99.90
22781;DHT22;11557;50.884;4.322;2022-08-19T14:35:46;24.70;99.90
22781;DHT22;11557;50.884;4.322;2022-08-19T14:38:21;24.80;99.90
22781;DHT22;11557;50.884;4.322;2022-08-19T14:43:39;24.70;99.90
22781;DHT22;11557;50.884;4.322;2022-08-19T14:46:05;24.30;99.90
22781;DHT22;11557;50.884;4.322;2022-08-19T14:48:32;24.10;99.90
22781;DHT22;11557;50.884;4.322;2022-08-19T14:50:58;24.20;99.90
22781;DHT22;11557;50.884;4.322;2022-08-19T14:53:25;24.30;99.90
22781;DHT22;11557;50.884;4.322;2022-08-19T14:55:51;24.50;99.90
22781;DHT22;11557;50.884;4.322;2022-08-19T14:58:16;24.50;99.90
22781;DHT22;11557;50.884;4.322;2022-08-19T15:00:42;24.50;99.90
22781;DHT22;11557;50.884;4.322;2022-08-19T15:03:07;24.80;99.90
22781;DHT22;11557;50.884;4.322;2022-08-19T15:05:33;25.00;99.90
22781;DHT22;11557;50.884;4.322;2022-08-19T15:08:04;25.30;99.90
22781;DHT22;11557;50.884;4.322;2022-08-19T15:10:31;25.60;99.90
22781;DHT22;11557;50.884;4.322;2022-08-19T15:12:56;25.60;99.90
22781;DHT22;11557;50.884;4.322;2022-08-19T15:15:22;25.70;99.90
22781;DHT22;11557;50.884;4.322;2022-08-19T15:17:48;25.40;99.90
22781;DHT22;11557;50.884;4.322;2022-08-19T15:20:17;25.10;99.90
22781;DHT22;11557;50.884;4.322;2022-08-19T15:22:44;25.00;99.90
22781;DHT22;11557;50.884;4.322;2022-08-19T15:25:12;25.00;99.90
22781;DHT22;11557;50.884;4.322;2022-08-19T15:27:40;24.90;99.90
22781;DHT22;11557;50.884;4.322;2022-08-19T15:30:08;24.70;99.90
22781;DHT22;11557;50.884;4.322;2022-08-19T15:33:21;24.80;99.90
22781;DHT22;11557;50.884;4.322;2022-08-19T15:35:48;24.80;99.90
22781;DHT22;11557;50.884;4.322;2022-08-19T15:38:17;24.80;99.90
22781;DHT22;11557;50.884;4.322;2022-08-19T15:40:46;24.70;99.90
22781;DHT22;11557;50.884;4.322;2022-08-19T15:43:16;24.80;99.90
22781;DHT22;11557;50.884;4.322;2022-08-19T15:45:46;24.90;99.90
22781;DHT22;11557;50.884;4.322;2022-08-19T15:48:15;25.00;99.90
22781;DHT22;11557;50.884;4.322;2022-08-19T15:50:46;25.00;99.90
22781;DHT22;11557;50.884;4.322;2022-08-19T15:53:11;25.10;99.90
22781;DHT22;11557;50.884;4.322;2022-08-19T15:55:44;25.10;99.90
22781;DHT22;11557;50.884;4.322;2022-08-19T15:58:18;24.80;99.90
22781;DHT22;11557;50.884;4.322;2022-08-19T16:01:05;24.70;99.90
22781;DHT22;11557;50.884;4.322;2022-08-19T16:03:58;24.80;99.90
22781;DHT22;11557;50.884;4.322;2022-08-19T16:06:46;24.70;99.90
22781;DHT22;11557;50.884;4.322;2022-08-19T16:09:23;24.70;99.90
22781;DHT22;11557;50.884;4.322;2022-08-19T16:11:49;24.70;99.90
22781;DHT22;11557;50.884;4.322;2022-08-19T16:14:19;24.70;99.90